sensor_id;sensor_type;location;lat;lon;timestamp;temperature;humidity
3348;DHT22;1687;49.540;8.574;2022-10-16T00:01:23;18.00;99.90
3348;DHT22;1687;49.540;8.574;2022-10-16T00:03:50;18.00;99.90
3348;DHT22;1687;49.540;8.574;2022-10-16T00:06:17;18.00;99.90
3348;DHT22;1687;49.540;8.574;2022-10-16T00:08:45;18.00;99.90
3348;DHT22;1687;49.540;8.574;2022-10-16T00:11:15;18.00;99.90
3348;DHT22;1687;49.540;8.574;2022-10-16T00:13:44;18.10;99.90
3348;DHT22;1687;49.540;8.574;2022-10-16T00:16:12;18.10;99.90
3348;DHT22;1687;49.540;8.574;2022-10-16T00:18:38;18.10;99.90
3348;DHT22;1687;49.540;8.574;2022-10-16T00:21:06;18.20;99.90
3348;DHT22;1687;49.540;8.574;2022-10-16T00:23:36;18.20;99.90
3348;DHT22;1687;49.540;8.574;2022-10-16T00:26:06;18.10;99.90
3348;DHT22;1687;49.540;8.574;2022-10-16T00:28:35;18.10;99.90
3348;DHT22;1687;49.540;8.574;2022-10-16T00:31:09;18.10;99.90
3348;DHT22;1687;49.540;8.574;2022-10-16T00:33:37;18.10;99.90
3348;DHT22;1687;49.540;8.574;2022-10-16T00:36:05;18.20;99.90
3348;DHT22;1687;49.540;8.574;2022-10-16T00:38:32;18.20;99.90
3348;DHT22;1687;49.540;8.574;2022-10-16T00:40:58;18.20;99.90
3348;DHT22;1687;49.540;8.574;2022-10-16T00:46:11;18.20;99.90
3348;DHT22;1687;49.540;8.574;2022-10-16T00:49:03;18.20;99.90
3348;DHT22;1687;49.540;8.574;2022-10-16T00:51:36;18.20;99.90
3348;DHT22;1687;49.540;8.574;2022-10-16T00:54:19;18.10;99.90
3348;DHT22;1687;49.540;8.574;2022-10-16T00:56:46;18.10;99.90
3348;DHT22;1687;49.540;8.574;2022-10-16T00:59:24;18.00;99.90
3348;DHT22;1687;49.540;8.574;2022-10-16T01:01:53;18.00;99.90
3348;DHT22;1687;49.540;8.574;2022-10-16T01:04:19;18.00;99.90
3348;DHT22;1687;49.540;8.574;2022-10-16T01:09:47;18.10;99.90
3348;DHT22;1687;49.540;8.574;2022-10-16T01:12:36;18.10;99.90
3348;DHT22;1687;49.540;8.574;2022-10-16T01:20:45;18.20;99.90
3348;DHT22;1687;49.540;8.574;2022-10-16T01:31:25;18.10;99.90
3348;DHT22;1687;49.540;8.574;2022-10-16T01:34:08;18.10;99.90
3348;DHT22;1687;49.540;8.574;2022-10-16T01:36:39;18.10;99.90
3348;DHT22;1687;49.540;8.574;2022-10-16T01:39:10;18.00;99.90
3348;DHT22;1687;49.540;8.574;2022-10-16T01:41:43;18.00;99.90
3348;DHT22;1687;49.540;8.574;2022-10-16T01:44:16;18.00;99.90
3348;DHT22;1687;49.540;8.574;2022-10-16T01:46:47;18.00;99.90
3348;DHT22;1687;49.540;8.574;2022-10-16T01:49:14;18.10;99.90
3348;DHT22;1687;49.540;8.574;2022-10-16T01:51:43;18.10;99.90
3348;DHT22;1687;49.540;8.574;2022-10-16T01:54:14;18.10;99.90
3348;DHT22;1687;49.540;8.574;2022-10-16T01:56:41;18.10;99.90
3348;DHT22;1687;49.540;8.574;2022-10-16T01:59:13;18.10;99.90
3348;DHT22;1687;49.540;8.574;2022-10-16T02:01:45;18.10;99.90
3348;DHT22;1687;49.540;8.574;2022-10-16T02:04:24;18.10;99.90
3348;DHT22;1687;49.540;8.574;2022-10-16T02:06:53;18.10;99.90
3348;DHT22;1687;49.540;8.574;2022-10-16T02:09:20;18.00;99.90
3348;DHT22;1687;49.540;8.574;2022-10-16T02:11:46;18.00;99.90
3348;DHT22;1687;49.540;8.574;2022-10-16T02:14:14;18.00;99.90
3348;DHT22;1687;49.540;8.574;2022-10-16T02:16:45;18.10;99.90
3348;DHT22;1687;49.540;8.574;2022-10-16T02:19:15;18.00;99.90
3348;DHT22;1687;49.540;8.574;2022-10-16T02:23:01;18.00;99.90
3348;DHT22;1687;49.540;8.574;2022-10-16T02:25:25;18.00;99.90
3348;DHT22;1687;49.540;8.574;2022-10-16T02:30:40;17.80;99.90
3348;DHT22;1687;49.540;8.574;2022-10-16T02:33:09;17.80;99.90
3348;DHT22;1687;49.540;8.574;2022-10-16T02:35:36;17.80;99.90
3348;DHT22;1687;49.540;8.574;2022-10-16T02:38:03;17.80;99.90
3348;DHT22;1687;49.540;8.574;2022-10-16T02:40:29;17.70;99.90
3348;DHT22;1687;49.540;8.574;2022-10-16T02:42:55;17.70;99.90
3348;DHT22;1687;49.540;8.574;2022-10-16T02:45:23;17.70;99.90
3348;DHT22;1687;49.540;8.574;2022-10-16T02:47:50;17.70;99.90
3348;DHT22;1687;49.540;8.574;2022-10-16T02:50:15;17.80;99.90
3348;DHT22;1687;49.540;8.574;2022-10-16T02:52:42;17.80;99.90
3348;DHT22;1687;49.540;8.574;2022-10-16T02:55:08;17.90;99.90
3348;DHT22;1687;49.540;8.574;2022-10-16T02:57:34;17.90;99.90
3348;DHT22;1687;49.540;8.574;2022-10-16T03:00:06;17.90;99.90
3348;DHT22;1687;49.540;8.574;2022-10-16T03:02:33;18.00;99.90
3348;DHT22;1687;49.540;8.574;2022-10-16T03:04:59;17.90;99.90
3348;DHT22;1687;49.540;8.574;2022-10-16T03:07:24;17.80;99.90
3348;DHT22;1687;49.540;8.574;2022-10-16T03:09:50;17.70;99.90
3348;DHT22;1687;49.540;8.574;2022-10-16T03:12:16;17.70;99.90
3348;DHT22;1687;49.540;8.574;2022-10-16T03:14:41;17.80;99.90
3348;DHT22;1687;49.540;8.574;2022-10-16T03:17:07;17.80;99.90
3348;DHT22;1687;49.540;8.574;2022-10-16T03:19:33;17.70;99.90
3348;DHT22;1687;49.540;8.574;2022-10-16T03:21:58;17.70;99.90
3348;DHT22;1687;49.540;8.574;2022-10-16T03:24:24;17.70;99.90
3348;DHT22;1687;49.540;8.574;2022-10-16T03:26:50;17.70;99.90
3348;DHT22;1687;49.540;8.574;2022-10-16T03:29:15;17.70;99.90
3348;DHT22;1687;49.540;8.574;2022-10-16T03:31:41;17.70;99.90
3348;DHT22;1687;49.540;8.574;2022-10-16T03:34:07;17.70;99.90
3348;DHT22;1687;49.540;8.574;2022-10-16T03:36:32;17.80;99.90
3348;DHT22;1687;49.540;8.574;2022-10-16T03:38:58;17.80;99.90
3348;DHT22;1687;49.540;8.574;2022-10-16T03:41:24;17.80;99.90
3348;DHT22;1687;49.540;8.574;2022-10-16T03:43:49;17.90;99.90
3348;DHT22;1687;49.540;8.574;2022-10-16T03:46:15;17.90;99.90
3348;DHT22;1687;49.540;8.574;2022-10-16T03:48:41;17.90;99.90
3348;DHT22;1687;49.540;8.574;2022-10-16T03:51:06;17.80;99.90
3348;DHT22;1687;49.540;8.574;2022-10-16T03:53:32;17.80;99.90
3348;DHT22;1687;49.540;8.574;2022-10-16T03:55:58;17.80;99.90
3348;DHT22;1687;49.540;8.574;2022-10-16T03:58:24;17.80;99.90
3348;DHT22;1687;49.540;8.574;2022-10-16T04:00:49;17.70;99.90
3348;DHT22;1687;49.540;8.574;2022-10-16T04:03:15;17.70;99.90
3348;DHT22;1687;49.540;8.574;2022-10-16T04:05:41;17.80;99.90
3348;DHT22;1687;49.540;8.574;2022-10-16T04:08:07;17.90;99.90
3348;DHT22;1687;49.540;8.574;2022-10-16T04:10:33;17.90;99.90
3348;DHT22;1687;49.540;8.574;2022-10-16T04:12:58;18.00;99.90
3348;DHT22;1687;49.540;8.574;2022-10-16T04:15:24;18.00;99.90
3348;DHT22;1687;49.540;8.574;2022-10-16T04:17:51;18.00;99.90
3348;DHT22;1687;49.540;8.574;2022-10-16T04:20:17;18.00;99.90
3348;DHT22;1687;49.540;8.574;2022-10-16T04:22:43;18.00;99.90
3348;DHT22;1687;49.540;8.574;2022-10-16T04:25:09;18.00;99.90
3348;DHT22;1687;49.540;8.574;2022-10-16T04:27:37;17.90;99.90
3348;DHT22;1687;49.540;8.574;2022-10-16T04:30:04;17.90;99.90
3348;DHT22;1687;49.540;8.574;2022-10-16T04:32:30;17.90;99.90
3348;DHT22;1687;49.540;8.574;2022-10-16T04:34:56;17.90;99.90
3348;DHT22;1687;49.540;8.574;2022-10-16T04:37:26;17.90;99.90
3348;DHT22;1687;49.540;8.574;2022-10-16T04:39:52;17.80;99.90
3348;DHT22;1687;49.540;8.574;2022-10-16T04:42:19;17.80;99.90
3348;DHT22;1687;49.540;8.574;2022-10-16T04:44:46;17.70;99.90
3348;DHT22;1687;49.540;8.574;2022-10-16T04:47:12;17.70;99.90
3348;DHT22;1687;49.540;8.574;2022-10-16T04:49:38;17.70;99.90
3348;DHT22;1687;49.540;8.574;2022-10-16T04:52:04;17.70;99.90
3348;DHT22;1687;49.540;8.574;2022-10-16T04:54:30;17.70;99.90
3348;DHT22;1687;49.540;8.574;2022-10-16T04:56:55;17.60;99.90
3348;DHT22;1687;49.540;8.574;2022-10-16T04:59:22;17.60;99.90
3348;DHT22;1687;49.540;8.574;2022-10-16T05:01:48;17.70;99.90
3348;DHT22;1687;49.540;8.574;2022-10-16T05:04:14;17.70;99.90
3348;DHT22;1687;49.540;8.574;2022-10-16T05:06:40;17.70;99.90
3348;DHT22;1687;49.540;8.574;2022-10-16T05:09:07;17.60;99.90
3348;DHT22;1687;49.540;8.574;2022-10-16T05:11:33;17.60;99.90
3348;DHT22;1687;49.540;8.574;2022-10-16T05:13:59;17.60;99.90
3348;DHT22;1687;49.540;8.574;2022-10-16T05:16:26;17.60;99.90
3348;DHT22;1687;49.540;8.574;2022-10-16T05:18:52;17.60;99.90
3348;DHT22;1687;49.540;8.574;2022-10-16T05:21:18;17.60;99.90
3348;DHT22;1687;49.540;8.574;2022-10-16T05:23:44;17.60;99.90
3348;DHT22;1687;49.540;8.574;2022-10-16T05:26:10;17.60;99.90
3348;DHT22;1687;49.540;8.574;2022-10-16T05:28:36;17.60;99.90
3348;DHT22;1687;49.540;8.574;2022-10-16T05:31:08;17.60;99.90
3348;DHT22;1687;49.540;8.574;2022-10-16T05:33:35;17.60;99.90
3348;DHT22;1687;49.540;8.574;2022-10-16T05:36:03;17.60;99.90
3348;DHT22;1687;49.540;8.574;2022-10-16T05:38:29;17.60;99.90
3348;DHT22;1687;49.540;8.574;2022-10-16T05:40:55;17.70;99.90
3348;DHT22;1687;49.540;8.574;2022-10-16T05:43:21;17.70;99.90
3348;DHT22;1687;49.540;8.574;2022-10-16T05:46:01;17.60;99.90
3348;DHT22;1687;49.540;8.574;2022-10-16T05:48:28;17.60;99.90
3348;DHT22;1687;49.540;8.574;2022-10-16T05:50:58;17.60;99.90
3348;DHT22;1687;49.540;8.574;2022-10-16T05:53:27;17.60;99.90
3348;DHT22;1687;49.540;8.574;2022-10-16T05:55:54;17.50;99.90
3348;DHT22;1687;49.540;8.574;2022-10-16T05:58:21;17.60;99.90
3348;DHT22;1687;49.540;8.574;2022-10-16T06:00:58;17.60;99.90
3348;DHT22;1687;49.540;8.574;2022-10-16T06:03:29;17.50;99.90
3348;DHT22;1687;49.540;8.574;2022-10-16T06:05:54;17.60;99.90
3348;DHT22;1687;49.540;8.574;2022-10-16T06:08:21;17.70;99.90
3348;DHT22;1687;49.540;8.574;2022-10-16T06:10:49;17.70;99.90
3348;DHT22;1687;49.540;8.574;2022-10-16T06:13:25;17.70;99.90
3348;DHT22;1687;49.540;8.574;2022-10-16T06:15:50;17.70;99.90
3348;DHT22;1687;49.540;8.574;2022-10-16T06:18:16;17.70;99.90
3348;DHT22;1687;49.540;8.574;2022-10-16T06:20:42;17.70;99.90
3348;DHT22;1687;49.540;8.574;2022-10-16T06:23:07;17.80;99.90
3348;DHT22;1687;49.540;8.574;2022-10-16T06:25:33;17.80;99.90
3348;DHT22;1687;49.540;8.574;2022-10-16T06:27:59;17.80;99.90
3348;DHT22;1687;49.540;8.574;2022-10-16T06:30:25;17.70;99.90
3348;DHT22;1687;49.540;8.574;2022-10-16T06:32:50;17.80;99.90
3348;DHT22;1687;49.540;8.574;2022-10-16T06:35:16;17.80;99.90
3348;DHT22;1687;49.540;8.574;2022-10-16T06:37:41;17.90;99.90
3348;DHT22;1687;49.540;8.574;2022-10-16T06:40:07;17.90;99.90
3348;DHT22;1687;49.540;8.574;2022-10-16T06:42:33;18.00;99.90
3348;DHT22;1687;49.540;8.574;2022-10-16T06:44:59;18.10;99.90
3348;DHT22;1687;49.540;8.574;2022-10-16T06:47:24;18.10;99.90
3348;DHT22;1687;49.540;8.574;2022-10-16T06:49:50;18.10;99.90
3348;DHT22;1687;49.540;8.574;2022-10-16T06:52:16;18.10;99.90
3348;DHT22;1687;49.540;8.574;2022-10-16T06:54:41;18.20;99.90
3348;DHT22;1687;49.540;8.574;2022-10-16T06:57:07;18.20;99.90
3348;DHT22;1687;49.540;8.574;2022-10-16T06:59:33;18.30;99.90
3348;DHT22;1687;49.540;8.574;2022-10-16T07:01:58;18.30;99.90
3348;DHT22;1687;49.540;8.574;2022-10-16T07:04:24;18.30;99.90
3348;DHT22;1687;49.540;8.574;2022-10-16T07:06:50;18.30;99.90
3348;DHT22;1687;49.540;8.574;2022-10-16T07:09:16;18.30;99.90
3348;DHT22;1687;49.540;8.574;2022-10-16T07:11:42;18.30;99.90
3348;DHT22;1687;49.540;8.574;2022-10-16T07:14:16;18.40;99.90
3348;DHT22;1687;49.540;8.574;2022-10-16T07:16:43;18.50;99.90
3348;DHT22;1687;49.540;8.574;2022-10-16T07:19:09;18.50;99.90
3348;DHT22;1687;49.540;8.574;2022-10-16T07:21:37;18.50;99.90
3348;DHT22;1687;49.540;8.574;2022-10-16T07:24:05;18.50;99.90
3348;DHT22;1687;49.540;8.574;2022-10-16T07:26:34;18.60;99.90
3348;DHT22;1687;49.540;8.574;2022-10-16T07:29:02;18.50;99.90
3348;DHT22;1687;49.540;8.574;2022-10-16T07:31:28;18.50;99.90
3348;DHT22;1687;49.540;8.574;2022-10-16T07:33:54;18.50;99.90
3348;DHT22;1687;49.540;8.574;2022-10-16T07:36:21;18.60;99.90
3348;DHT22;1687;49.540;8.574;2022-10-16T07:38:47;18.60;99.90
3348;DHT22;1687;49.540;8.574;2022-10-16T07:41:16;18.60;99.90
3348;DHT22;1687;49.540;8.574;2022-10-16T07:43:50;18.60;99.90
3348;DHT22;1687;49.540;8.574;2022-10-16T07:46:18;18.60;99.90
3348;DHT22;1687;49.540;8.574;2022-10-16T07:48:45;18.60;99.90
3348;DHT22;1687;49.540;8.574;2022-10-16T07:51:17;18.60;99.90
3348;DHT22;1687;49.540;8.574;2022-10-16T07:53:44;18.60;99.90
3348;DHT22;1687;49.540;8.574;2022-10-16T07:56:10;18.60;99.90
3348;DHT22;1687;49.540;8.574;2022-10-16T07:58:37;18.60;99.90
3348;DHT22;1687;49.540;8.574;2022-10-16T08:01:04;18.50;99.90
3348;DHT22;1687;49.540;8.574;2022-10-16T08:03:34;18.60;99.90
3348;DHT22;1687;49.540;8.574;2022-10-16T08:06:00;18.60;99.90
3348;DHT22;1687;49.540;8.574;2022-10-16T08:08:27;18.60;99.90
3348;DHT22;1687;49.540;8.574;2022-10-16T08:10:53;18.50;99.90
3348;DHT22;1687;49.540;8.574;2022-10-16T08:13:19;18.50;99.90
3348;DHT22;1687;49.540;8.574;2022-10-16T08:15:45;18.50;99.90
3348;DHT22;1687;49.540;8.574;2022-10-16T08:18:13;18.50;99.90
3348;DHT22;1687;49.540;8.574;2022-10-16T08:20:39;18.60;99.90
3348;DHT22;1687;49.540;8.574;2022-10-16T08:23:06;18.60;99.90
3348;DHT22;1687;49.540;8.574;2022-10-16T08:25:35;18.60;99.90
3348;DHT22;1687;49.540;8.574;2022-10-16T08:28:04;18.60;99.90
3348;DHT22;1687;49.540;8.574;2022-10-16T08:30:31;18.70;99.90
3348;DHT22;1687;49.540;8.574;2022-10-16T08:32:57;18.70;99.90
3348;DHT22;1687;49.540;8.574;2022-10-16T08:35:23;18.70;99.90
3348;DHT22;1687;49.540;8.574;2022-10-16T08:37:49;18.80;99.90
3348;DHT22;1687;49.540;8.574;2022-10-16T08:40:22;18.80;99.90
3348;DHT22;1687;49.540;8.574;2022-10-16T08:45:42;18.80;99.90
3348;DHT22;1687;49.540;8.574;2022-10-16T08:48:47;18.90;99.90
3348;DHT22;1687;49.540;8.574;2022-10-16T08:51:33;18.90;99.90
3348;DHT22;1687;49.540;8.574;2022-10-16T08:56:31;18.70;99.90
3348;DHT22;1687;49.540;8.574;2022-10-16T08:58:59;18.50;99.90
3348;DHT22;1687;49.540;8.574;2022-10-16T09:01:37;18.20;99.90
3348;DHT22;1687;49.540;8.574;2022-10-16T09:10:34;17.50;99.90
3348;DHT22;1687;49.540;8.574;2022-10-16T09:15:58;17.60;99.90
3348;DHT22;1687;49.540;8.574;2022-10-16T09:18:54;17.60;99.90
3348;DHT22;1687;49.540;8.574;2022-10-16T09:21:30;17.70;99.90
3348;DHT22;1687;49.540;8.574;2022-10-16T09:24:04;17.90;99.90
3348;DHT22;1687;49.540;8.574;2022-10-16T09:26:35;18.10;99.90
3348;DHT22;1687;49.540;8.574;2022-10-16T09:29:00;18.40;99.90
3348;DHT22;1687;49.540;8.574;2022-10-16T09:31:28;18.50;99.90
3348;DHT22;1687;49.540;8.574;2022-10-16T09:33:59;18.70;99.90
3348;DHT22;1687;49.540;8.574;2022-10-16T09:36:27;18.90;99.90
3348;DHT22;1687;49.540;8.574;2022-10-16T09:39:09;19.20;99.90
3348;DHT22;1687;49.540;8.574;2022-10-16T09:41:39;19.60;99.90
3348;DHT22;1687;49.540;8.574;2022-10-16T09:44:30;19.90;99.90
3348;DHT22;1687;49.540;8.574;2022-10-16T09:47:17;20.20;99.90
3348;DHT22;1687;49.540;8.574;2022-10-16T09:52:28;20.30;99.90
3348;DHT22;1687;49.540;8.574;2022-10-16T09:55:23;20.30;99.90
3348;DHT22;1687;49.540;8.574;2022-10-16T10:00:20;20.20;99.90
3348;DHT22;1687;49.540;8.574;2022-10-16T10:02:46;20.10;99.90
3348;DHT22;1687;49.540;8.574;2022-10-16T10:05:25;20.10;99.90
3348;DHT22;1687;49.540;8.574;2022-10-16T10:08:00;20.10;99.90
3348;DHT22;1687;49.540;8.574;2022-10-16T10:10:32;20.10;99.90
3348;DHT22;1687;49.540;8.574;2022-10-16T10:12:59;20.20;99.90
3348;DHT22;1687;49.540;8.574;2022-10-16T10:15:29;20.30;99.90
3348;DHT22;1687;49.540;8.574;2022-10-16T10:17:58;20.60;99.90
3348;DHT22;1687;49.540;8.574;2022-10-16T10:20:35;20.70;99.90
3348;DHT22;1687;49.540;8.574;2022-10-16T10:23:22;20.80;99.90
3348;DHT22;1687;49.540;8.574;2022-10-16T10:26:13;20.90;99.90
3348;DHT22;1687;49.540;8.574;2022-10-16T10:46:37;20.50;99.90
3348;DHT22;1687;49.540;8.574;2022-10-16T10:52:09;20.40;99.90
3348;DHT22;1687;49.540;8.574;2022-10-16T10:57:54;20.70;99.90
3348;DHT22;1687;49.540;8.574;2022-10-16T11:06:52;21.30;99.90
3348;DHT22;1687;49.540;8.574;2022-10-16T11:09:30;21.40;99.90
3348;DHT22;1687;49.540;8.574;2022-10-16T11:17:41;21.60;99.90
3348;DHT22;1687;49.540;8.574;2022-10-16T11:20:25;21.60;99.90
3348;DHT22;1687;49.540;8.574;2022-10-16T11:25:33;21.70;99.90
3348;DHT22;1687;49.540;8.574;2022-10-16T11:28:08;21.70;99.90
3348;DHT22;1687;49.540;8.574;2022-10-16T11:30:51;21.70;99.90
3348;DHT22;1687;49.540;8.574;2022-10-16T11:33:41;21.80;99.90
3348;DHT22;1687;49.540;8.574;2022-10-16T11:36:33;22.00;99.90
3348;DHT22;1687;49.540;8.574;2022-10-16T11:39:20;22.10;99.90
3348;DHT22;1687;49.540;8.574;2022-10-16T11:44:51;22.20;99.90
3348;DHT22;1687;49.540;8.574;2022-10-16T11:47:25;22.20;99.90
3348;DHT22;1687;49.540;8.574;2022-10-16T11:56:07;22.50;99.90
3348;DHT22;1687;49.540;8.574;2022-10-16T11:58:59;22.50;99.90
3348;DHT22;1687;49.540;8.574;2022-10-16T12:07:01;22.60;99.90
3348;DHT22;1687;49.540;8.574;2022-10-16T12:09:32;22.60;99.90
3348;DHT22;1687;49.540;8.574;2022-10-16T12:11:58;22.70;99.90
3348;DHT22;1687;49.540;8.574;2022-10-16T12:14:38;22.70;99.90
3348;DHT22;1687;49.540;8.574;2022-10-16T12:20:00;22.60;99.90
3348;DHT22;1687;49.540;8.574;2022-10-16T12:22:56;22.60;99.90
3348;DHT22;1687;49.540;8.574;2022-10-16T12:25:28;22.60;99.90
3348;DHT22;1687;49.540;8.574;2022-10-16T12:28:22;22.60;99.90
3348;DHT22;1687;49.540;8.574;2022-10-16T12:30:55;22.60;99.90
3348;DHT22;1687;49.540;8.574;2022-10-16T12:34:01;22.50;99.90
3348;DHT22;1687;49.540;8.574;2022-10-16T12:36:36;22.50;99.90
3348;DHT22;1687;49.540;8.574;2022-10-16T12:39:02;22.60;99.90
3348;DHT22;1687;49.540;8.574;2022-10-16T12:41:35;22.60;99.90
3348;DHT22;1687;49.540;8.574;2022-10-16T12:44:05;22.70;99.90
3348;DHT22;1687;49.540;8.574;2022-10-16T12:46:49;22.70;99.90
3348;DHT22;1687;49.540;8.574;2022-10-16T12:51:54;22.70;99.90
3348;DHT22;1687;49.540;8.574;2022-10-16T12:54:37;22.80;99.90
3348;DHT22;1687;49.540;8.574;2022-10-16T12:57:34;23.10;99.90
3348;DHT22;1687;49.540;8.574;2022-10-16T13:06:17;23.50;99.90
3348;DHT22;1687;49.540;8.574;2022-10-16T13:09:04;23.60;99.90
3348;DHT22;1687;49.540;8.574;2022-10-16T13:15:01;23.50;99.90
3348;DHT22;1687;49.540;8.574;2022-10-16T13:18:02;23.60;99.90
3348;DHT22;1687;49.540;8.574;2022-10-16T13:23:17;23.20;99.30
3348;DHT22;1687;49.540;8.574;2022-10-16T13:28:52;22.90;99.30
3348;DHT22;1687;49.540;8.574;2022-10-16T13:31:21;22.80;99.30
3348;DHT22;1687;49.540;8.574;2022-10-16T13:33:54;22.70;99.10
3348;DHT22;1687;49.540;8.574;2022-10-16T13:36:23;22.60;99.00
3348;DHT22;1687;49.540;8.574;2022-10-16T13:39:14;22.60;99.10
3348;DHT22;1687;49.540;8.574;2022-10-16T13:42:00;22.60;99.10
3348;DHT22;1687;49.540;8.574;2022-10-16T13:44:27;22.50;98.90
3348;DHT22;1687;49.540;8.574;2022-10-16T13:46:59;22.50;98.90
3348;DHT22;1687;49.540;8.574;2022-10-16T13:49:26;22.50;98.90
3348;DHT22;1687;49.540;8.574;2022-10-16T13:51:59;22.60;99.10
3348;DHT22;1687;49.540;8.574;2022-10-16T13:54:26;22.60;98.50
3348;DHT22;1687;49.540;8.574;2022-10-16T13:56:54;22.60;98.70
3348;DHT22;1687;49.540;8.574;2022-10-16T13:59:26;22.70;98.70
3348;DHT22;1687;49.540;8.574;2022-10-16T14:01:56;22.70;98.60
3348;DHT22;1687;49.540;8.574;2022-10-16T14:04:23;22.70;98.50
3348;DHT22;1687;49.540;8.574;2022-10-16T14:06:51;22.70;98.50
3348;DHT22;1687;49.540;8.574;2022-10-16T14:09:26;22.70;98.30
3348;DHT22;1687;49.540;8.574;2022-10-16T14:12:00;22.70;98.30
3348;DHT22;1687;49.540;8.574;2022-10-16T14:14:34;22.60;98.10
3348;DHT22;1687;49.540;8.574;2022-10-16T14:17:05;22.50;97.90
3348;DHT22;1687;49.540;8.574;2022-10-16T14:19:31;22.40;97.80
3348;DHT22;1687;49.540;8.574;2022-10-16T14:21:59;22.40;98.10
3348;DHT22;1687;49.540;8.574;2022-10-16T14:24:33;22.40;98.10
3348;DHT22;1687;49.540;8.574;2022-10-16T14:27:00;22.40;98.10
3348;DHT22;1687;49.540;8.574;2022-10-16T14:29:29;22.40;98.00
3348;DHT22;1687;49.540;8.574;2022-10-16T14:32:02;22.40;97.80
3348;DHT22;1687;49.540;8.574;2022-10-16T14:34:32;22.40;97.90
3348;DHT22;1687;49.540;8.574;2022-10-16T14:37:27;22.30;97.70
3348;DHT22;1687;49.540;8.574;2022-10-16T14:39:54;22.30;97.80
3348;DHT22;1687;49.540;8.574;2022-10-16T14:42:22;22.30;97.80
3348;DHT22;1687;49.540;8.574;2022-10-16T14:44:50;22.30;97.80
3348;DHT22;1687;49.540;8.574;2022-10-16T14:47:23;22.20;97.60
3348;DHT22;1687;49.540;8.574;2022-10-16T14:49:52;22.20;97.50
3348;DHT22;1687;49.540;8.574;2022-10-16T14:52:21;22.10;97.50
3348;DHT22;1687;49.540;8.574;2022-10-16T14:54:50;22.10;97.60
3348;DHT22;1687;49.540;8.574;2022-10-16T14:57:23;22.10;97.60
3348;DHT22;1687;49.540;8.574;2022-10-16T14:59:50;22.00;97.40
3348;DHT22;1687;49.540;8.574;2022-10-16T15:02:27;22.00;97.50
3348;DHT22;1687;49.540;8.574;2022-10-16T15:04:54;22.00;97.50
3348;DHT22;1687;49.540;8.574;2022-10-16T15:07:20;22.00;97.50
3348;DHT22;1687;49.540;8.574;2022-10-16T15:09:46;22.10;97.70
3348;DHT22;1687;49.540;8.574;2022-10-16T15:12:12;22.20;97.70
3348;DHT22;1687;49.540;8.574;2022-10-16T15:14:38;22.50;98.00
3348;DHT22;1687;49.540;8.574;2022-10-16T15:17:04;22.90;97.90
3348;DHT22;1687;49.540;8.574;2022-10-16T15:19:30;23.10;97.50
3348;DHT22;1687;49.540;8.574;2022-10-16T15:21:56;23.20;97.30
3348;DHT22;1687;49.540;8.574;2022-10-16T15:24:22;23.20;97.20
3348;DHT22;1687;49.540;8.574;2022-10-16T15:26:47;23.10;97.00
3348;DHT22;1687;49.540;8.574;2022-10-16T15:29:14;23.00;96.70
3348;DHT22;1687;49.540;8.574;2022-10-16T15:31:40;22.90;96.90
3348;DHT22;1687;49.540;8.574;2022-10-16T15:34:09;22.80;96.70
3348;DHT22;1687;49.540;8.574;2022-10-16T15:36:37;22.80;96.70
3348;DHT22;1687;49.540;8.574;2022-10-16T15:39:04;22.70;96.70
3348;DHT22;1687;49.540;8.574;2022-10-16T15:41:36;22.60;96.70
3348;DHT22;1687;49.540;8.574;2022-10-16T15:44:01;22.60;96.50
3348;DHT22;1687;49.540;8.574;2022-10-16T15:46:27;22.60;96.50
3348;DHT22;1687;49.540;8.574;2022-10-16T15:48:57;22.50;96.50
3348;DHT22;1687;49.540;8.574;2022-10-16T15:51:24;22.50;96.40
3348;DHT22;1687;49.540;8.574;2022-10-16T15:53:52;22.40;96.70
3348;DHT22;1687;49.540;8.574;2022-10-16T15:56:19;22.40;96.40
3348;DHT22;1687;49.540;8.574;2022-10-16T15:58:44;22.40;96.30
3348;DHT22;1687;49.540;8.574;2022-10-16T16:01:10;22.30;96.30
3348;DHT22;1687;49.540;8.574;2022-10-16T16:03:37;22.30;96.30
3348;DHT22;1687;49.540;8.574;2022-10-16T16:06:07;22.20;96.20
3348;DHT22;1687;49.540;8.574;2022-10-16T16:08:34;22.20;96.30
3348;DHT22;1687;49.540;8.574;2022-10-16T16:11:11;22.20;96.20
3348;DHT22;1687;49.540;8.574;2022-10-16T16:13:39;22.10;96.20
3348;DHT22;1687;49.540;8.574;2022-10-16T16:16:09;22.00;96.10
3348;DHT22;1687;49.540;8.574;2022-10-16T16:18:36;21.80;96.00
3348;DHT22;1687;49.540;8.574;2022-10-16T16:21:02;21.70;95.90
3348;DHT22;1687;49.540;8.574;2022-10-16T16:23:28;21.60;96.00
3348;DHT22;1687;49.540;8.574;2022-10-16T16:26:15;21.50;96.00
3348;DHT22;1687;49.540;8.574;2022-10-16T16:28:51;21.30;95.90
3348;DHT22;1687;49.540;8.574;2022-10-16T16:31:17;21.20;95.90
3348;DHT22;1687;49.540;8.574;2022-10-16T16:33:43;21.10;95.90
3348;DHT22;1687;49.540;8.574;2022-10-16T16:36:09;21.00;96.00
3348;DHT22;1687;49.540;8.574;2022-10-16T16:38:35;20.90;96.00
3348;DHT22;1687;49.540;8.574;2022-10-16T16:41:11;20.90;96.00
3348;DHT22;1687;49.540;8.574;2022-10-16T16:43:37;20.80;96.10
3348;DHT22;1687;49.540;8.574;2022-10-16T16:46:03;20.70;96.10
3348;DHT22;1687;49.540;8.574;2022-10-16T16:48:29;20.70;96.20
3348;DHT22;1687;49.540;8.574;2022-10-16T16:50:55;20.60;96.20
3348;DHT22;1687;49.540;8.574;2022-10-16T16:53:21;20.60;96.20
3348;DHT22;1687;49.540;8.574;2022-10-16T16:55:47;20.50;96.20
3348;DHT22;1687;49.540;8.574;2022-10-16T16:58:13;20.50;96.30
3348;DHT22;1687;49.540;8.574;2022-10-16T17:00:47;20.40;96.30
3348;DHT22;1687;49.540;8.574;2022-10-16T17:03:13;20.30;96.30
3348;DHT22;1687;49.540;8.574;2022-10-16T17:05:39;20.20;96.30
3348;DHT22;1687;49.540;8.574;2022-10-16T17:08:08;20.10;96.40
3348;DHT22;1687;49.540;8.574;2022-10-16T17:10:34;20.00;96.40
3348;DHT22;1687;49.540;8.574;2022-10-16T17:13:07;20.00;96.50
3348;DHT22;1687;49.540;8.574;2022-10-16T17:15:33;19.90;96.50
3348;DHT22;1687;49.540;8.574;2022-10-16T17:17:58;19.80;96.60
3348;DHT22;1687;49.540;8.574;2022-10-16T17:20:24;19.80;96.80
3348;DHT22;1687;49.540;8.574;2022-10-16T17:22:50;19.70;96.80
3348;DHT22;1687;49.540;8.574;2022-10-16T17:25:16;19.60;96.70
3348;DHT22;1687;49.540;8.574;2022-10-16T17:27:42;19.60;96.90
3348;DHT22;1687;49.540;8.574;2022-10-16T17:30:07;19.60;97.00
3348;DHT22;1687;49.540;8.574;2022-10-16T17:32:33;19.50;97.00
3348;DHT22;1687;49.540;8.574;2022-10-16T17:34:59;19.50;97.10
3348;DHT22;1687;49.540;8.574;2022-10-16T17:37:25;19.40;97.10
3348;DHT22;1687;49.540;8.574;2022-10-16T17:39:51;19.30;97.10
3348;DHT22;1687;49.540;8.574;2022-10-16T17:42:17;19.30;97.20
3348;DHT22;1687;49.540;8.574;2022-10-16T17:44:43;19.20;97.20
3348;DHT22;1687;49.540;8.574;2022-10-16T17:47:08;19.10;97.30
3348;DHT22;1687;49.540;8.574;2022-10-16T17:49:34;19.00;97.30
3348;DHT22;1687;49.540;8.574;2022-10-16T17:52:00;18.90;97.40
3348;DHT22;1687;49.540;8.574;2022-10-16T17:54:27;18.90;97.50
3348;DHT22;1687;49.540;8.574;2022-10-16T17:56:53;18.90;97.60
3348;DHT22;1687;49.540;8.574;2022-10-16T17:59:18;18.80;97.60
3348;DHT22;1687;49.540;8.574;2022-10-16T18:01:47;18.80;97.70
3348;DHT22;1687;49.540;8.574;2022-10-16T18:04:14;18.70;97.70
3348;DHT22;1687;49.540;8.574;2022-10-16T18:06:42;18.60;97.70
3348;DHT22;1687;49.540;8.574;2022-10-16T18:09:10;18.60;97.90
3348;DHT22;1687;49.540;8.574;2022-10-16T18:11:38;18.60;97.90
3348;DHT22;1687;49.540;8.574;2022-10-16T18:14:05;18.60;98.00
3348;DHT22;1687;49.540;8.574;2022-10-16T18:16:31;18.50;97.90